Terminal Aerodrome Forecast
Issued by NWS

Home | Current Version | Previous Version | Text Only | Print | Product List | Glossary On
Versions: 1 2 3 4 5 6 7 8 9 10 11 12 13 14 15 16 17 18 19 20 21 22 23 24 25 26 27 28 29 30 31 32 33 34 35 36
000
FTUS43 KGRB 110500 RRA
TAFRHI
TAF
KRHI 110541Z 1106/1206 18006KT P6SM SCT050 BKN200
      TEMPO 1106/1108 SCT040 BKN050
     FM111000 20007KT P6SM VCSH SCT040 BKN100
     FM111400 20010G16KT P6SM VCSH BKN040 OVC090
     FM120300 17008KT P6SM VCSH BKN030 BKN070=

USA.gov is the U.S. government's official web portal to all federal, state and local government web resources and services.